Aérodrome :
LOGIN :

S'inscrire | Disclaimer

   EN    FR    IT 

 










Légende :    VFR   VFR Marginal   IFR   IFR Intensif   IFR Très Intensif
Visi : 
Plafond : 
>= 8 km
>= 3000ft
5 à 8 km
1000 à 3000 ft
1500m à 5 km
500 à 1000 ft
800 à 1500m
200 à 500 ft
< 800m
< 200 ft
Symboles :   Orages  Brouillard  Fortes neiges  Fortes précipitations  Vent > 20 kt
SIGMETs :   Divers  Orages  Givrage  Turbulence  Onde Orograph.  Cendres Volcan.






- Altitude de l'aérodrome : -11 ft
- Code IATA : AMS


EHAM - Amsterdam Schiphol

DERNIER METAR :
  • 091925Z 18006KT 150V210 0500 R18C/0700D R27/0650D R18R/0800N R06/0900U FZFG OVC001 M00/M00 Q1007 NOSIG

METARs EXPIRÉS :
  • 090455Z VRB02KT 5000 1500E R18C/P2000N R27/0400N R18R/P2000U R06/P2000N BCFG FEW002 SCT004 M03/M03 Q1006 NOSIG
  • 091855Z 18008KT 150V210 0600 R18C/0700D R27/0900U R18R/0650N R06/1000U FZFG OVC001 00/00 Q1006 NOSIG
  • 091825Z 17006KT 0400 R18C/0600N R27/0550N R18R/0500N R06/0700D FZFG OVC001 00/00 Q1006 NOSIG
  • 091755Z 16006KT 0350 R18C/0600N R27/0450N R18R/0400N R06/0450N FZFG OVC001 M00/M00 Q1006 NOSIG
  • 091725Z 17007KT 0400 R18C/0550N R27/0550N R18R/0400N R06/0600D FZFG OVC001 M00/M00 Q1006 NOSIG
  • 091655Z 18005KT 0650 R18C/0600N R27/1200N R18R/0375N R06/0700D FG BKN001 OVC002 00/00 Q1006 NOSIG
  • 091625Z 18006KT 1100 R18C/0700N R27/1900N R18R/0450N R06/0750N BCFG BKN001 OVC002 00/00 Q1006 NOSIG

TAF TAF EHAM
Valide du 09 à 18h jusqu'au 11 à 00h UTC


091712Z 0918/1024 18005KT 0500 FG BKN001
PROB40
TEMPO 0918/1011 1200 BCFG BKN002
PROB30
TEMPO 0918/1010 0300 FZFG VV000
BECMG 1012/1015 19010KT 4000 BR BKN006
PROB30
TEMPO 1015/1024 2000 -SHRAGSSN BKN003 FEW018CB



MET'MAP, la Météo Aéronautique d'un coup d'oeil ! - Copyright ORBIFLY Décembre 2007 - Disclaimer

ORBIFLY MET'MAP TEAM :

Programmation & Développement : Alexandra Zaïnal
Sur une idée originale de : Baudouin d'Aumeries
Soutien technique & logistique : Manuel Goepfert
Assistance : Marc-Olivier Méhu




SOURCES & CREDITS :

   NOAA